Time;durP1;ratioP1;P1;durP2;ratioP2;P2;SDS_P1;SDS_P2;PMS_P1;PMS_P2;Temp;Humidity;BMP_temperature;BMP_pressure;BME280_temperature;BME280_humidity;BME280_pressure;Samples;Min_cycle;Max_cycle;Signal;HPM_P1;HPM_P2
2023/01/04 00:00:46;;;;;;;15.13;5.38;;;;;;;;;;5004771;28;20029;-68
2023/01/04 00:03:11;;;;;;;15.77;7.60;;;;;;;;;;5010919;28;20033;-70
2023/01/04 00:05:37;;;;;;;15.48;7.22;;;;;;;;;;5002872;28;20030;-68
2023/01/04 00:08:03;;;;;;;14.98;7.53;;;;;;;;;;5009761;28;20015;-68
2023/01/04 00:10:28;;;;;;;9.82;5.63;;;;;;;;;;4995591;28;20030;-69
2023/01/04 00:12:53;;;;;;;11.43;6.88;;;;;;;;;;5007347;28;20356;-68
2023/01/04 00:15:19;;;;;;;12.38;7.68;;;;;;;;;;5015146;28;20026;-69
2023/01/04 00:17:44;;;;;;;15.50;6.88;;;;;;;;;;5001133;28;20185;-69
2023/01/04 00:20:10;;;;;;;16.63;7.60;;;;;;;;;;4995544;28;20169;-66
2023/01/04 00:22:35;;;;;;;22.77;7.72;;;;;;;;;;4995419;28;20050;-68
2023/01/04 00:25:01;;;;;;;15.57;7.50;;;;;;;;;;4995344;28;20506;-70
2023/01/04 00:27:26;;;;;;;16.50;7.50;;;;;;;;;;4995308;28;20110;-67
2023/01/04 00:29:51;;;;;;;17.38;7.85;;;;;;;;;;4995053;28;20419;-68
2023/01/04 00:32:17;;;;;;;16.70;8.27;;;;;;;;;;4995135;28;20088;-69
2023/01/04 00:34:42;;;;;;;9.60;5.32;;;;;;;;;;4994988;28;20031;-67
2023/01/04 00:37:08;;;;;;;19.85;7.63;;;;;;;;;;4994829;28;20037;-66
2023/01/04 00:39:33;;;;;;;15.93;8.10;;;;;;;;;;4994842;28;20031;-68
2023/01/04 00:42:04;;;;;;;13.70;7.57;;;;;;;;;;4991955;28;20093;-68
2023/01/04 00:44:31;;;;;;;19.23;8.13;;;;;;;;;;4994928;28;20069;-68
2023/01/04 00:46:57;;;;;;;12.75;6.70;;;;;;;;;;4994587;28;20514;-67
2023/01/04 00:49:23;;;;;;;15.50;7.88;;;;;;;;;;4994692;28;20030;-69
2023/01/04 00:51:49;;;;;;;12.50;6.53;;;;;;;;;;4994599;28;20430;-67
2023/01/04 00:54:15;;;;;;;14.55;7.93;;;;;;;;;;4994667;28;20071;-67
2023/01/04 00:56:41;;;;;;;17.45;8.68;;;;;;;;;;4994457;28;20026;-69
2023/01/04 00:59:07;;;;;;;15.32;7.10;;;;;;;;;;4994478;28;20025;-68
2023/01/04 01:01:33;;;;;;;15.32;7.97;;;;;;;;;;4987475;28;20030;-70
2023/01/04 01:04:01;;;;;;;13.20;7.10;;;;;;;;;;4986821;28;20029;-68
2023/01/04 01:06:28;;;;;;;15.68;8.27;;;;;;;;;;4986279;28;20041;-68
2023/01/04 01:08:54;;;;;;;16.52;8.68;;;;;;;;;;4989110;28;20019;-71
2023/01/04 01:11:20;;;;;;;12.95;7.07;;;;;;;;;;4986382;28;20650;-68
2023/01/04 01:13:46;;;;;;;16.20;7.65;;;;;;;;;;4982545;28;20034;-70
2023/01/04 01:16:15;;;;;;;19.98;8.07;;;;;;;;;;4984665;28;20050;-70
2023/01/04 01:18:42;;;;;;;17.48;8.48;;;;;;;;;;4982963;28;20054;-69
2023/01/04 01:21:10;;;;;;;10.45;5.47;;;;;;;;;;4984588;28;20037;-68
2023/01/04 01:23:36;;;;;;;14.35;7.93;;;;;;;;;;4984809;28;20019;-67
2023/01/04 01:26:06;;;;;;;14.60;8.75;;;;;;;;;;4982626;28;20484;-68
2023/01/04 01:28:33;;;;;;;16.98;8.48;;;;;;;;;;4983011;28;20034;-68
2023/01/04 01:31:03;;;;;;;11.85;6.53;;;;;;;;;;4983641;28;20480;-68
2023/01/04 01:33:28;;;;;;;8.35;5.13;;;;;;;;;;4984942;28;20026;-69
2023/01/04 01:35:54;;;;;;;18.45;9.27;;;;;;;;;;4983075;28;20029;-68
2023/01/04 01:38:19;;;;;;;18.85;9.20;;;;;;;;;;4983598;28;20022;-69
2023/01/04 01:40:45;;;;;;;14.73;8.23;;;;;;;;;;4984690;28;20049;-67
2023/01/04 01:43:22;;;;;;;14.73;8.10;;;;;;;;;;4976954;28;20526;-69
2023/01/04 01:45:56;;;;;;;16.77;9.55;;;;;;;;;;4974056;28;20034;-70
2023/01/04 01:48:27;;;;;;;15.07;8.45;;;;;;;;;;4973257;28;20027;-70
2023/01/04 01:50:57;;;;;;;18.23;9.13;;;;;;;;;;4974423;28;20029;-68
2023/01/04 01:53:25;;;;;;;19.83;9.90;;;;;;;;;;4974517;28;20023;-70
2023/01/04 01:55:51;;;;;;;17.13;9.02;;;;;;;;;;4974301;28;20026;-71
2023/01/04 01:58:27;;;;;;;15.55;8.20;;;;;;;;;;4974266;28;20030;-69
2023/01/04 02:00:52;;;;;;;16.10;8.98;;;;;;;;;;4974069;28;20035;-69
2023/01/04 02:03:20;;;;;;;15.73;8.68;;;;;;;;;;4974319;28;20018;-71
2023/01/04 02:05:51;;;;;;;15.90;9.18;;;;;;;;;;4974190;28;20034;-68
2023/01/04 02:08:19;;;;;;;17.63;9.13;;;;;;;;;;4974240;28;20029;-70
2023/01/04 02:10:44;;;;;;;17.95;9.10;;;;;;;;;;4974285;28;20027;-68
2023/01/04 02:13:23;;;;;;;11.95;6.90;;;;;;;;;;4974296;28;20049;-71
2023/01/04 02:16:19;;;;;;;17.70;9.73;;;;;;;;;;4974001;28;20034;-68
2023/01/04 02:19:10;;;;;;;16.40;8.77;;;;;;;;;;4974088;28;20113;-70
2023/01/04 02:22:01;;;;;;;11.57;7.32;;;;;;;;;;4974042;28;20038;-71
2023/01/04 02:25:17;;;;;;;16.27;9.05;;;;;;;;;;4974120;28;20022;-70
2023/01/04 02:28:20;;;;;;;17.27;8.77;;;;;;;;;;4917449;29;20453;-70
2023/01/04 02:31:07;;;;;;;7.43;3.92;;;;;;;;;;4933307;29;20463;-70
2023/01/04 02:33:57;;;;;;;20.80;9.68;;;;;;;;;;4933435;29;20410;-71
2023/01/04 02:36:45;;;;;;;10.95;7.18;;;;;;;;;;4933269;29;20051;-69
2023/01/04 02:39:46;;;;;;;9.68;5.82;;;;;;;;;;4933439;29;20060;-71
2023/01/04 02:45:38;;;;;;;16.40;9.32;;;;;;;;;;4876447;29;20623;-67
2023/01/04 02:50:50;;;;;;;15.60;9.70;;;;;;;;;;4876741;29;20036;-68
2023/01/04 02:53:20;;;;;;;15.98;10.13;;;;;;;;;;4876733;29;20475;-68
2023/01/04 02:55:48;;;;;;;;;;;;;;;;;;4877143;29;20049;-71
2023/01/04 02:58:31;;;;;;;13.80;6.95;;;;;;;;;;4876427;29;19998;-68
2023/01/04 03:06:46;;;;;;;16.73;9.43;;;;;;;;;;4839543;29;20088;-69
2023/01/04 03:09:18;;;;;;;16.75;8.93;;;;;;;;;;4839803;29;20444;-67
2023/01/04 03:14:36;;;;;;;15.88;9.15;;;;;;;;;;4839498;29;20066;-68
2023/01/04 03:17:08;;;;;;;17.55;9.30;;;;;;;;;;4839659;29;20166;-68
2023/01/04 03:19:53;;;;;;;17.13;9.15;;;;;;;;;;4909477;29;20032;-70
2023/01/04 03:36:49;;;;;;;16.45;8.98;;;;;;;;;;4974929;28;20413;-70
2023/01/04 03:48:27;;;;;;;15.00;7.95;;;;;;;;;;4974968;28;20037;-71
2023/01/04 03:50:59;;;;;;;15.98;8.40;;;;;;;;;;4974682;28;20061;-70
2023/01/04 03:53:26;;;;;;;13.88;7.30;;;;;;;;;;4974584;28;20038;-70
2023/01/04 03:55:53;;;;;;;12.40;6.43;;;;;;;;;;4974146;28;20045;-68
2023/01/04 03:58:19;;;;;;;17.10;8.65;;;;;;;;;;4974324;28;20487;-69
2023/01/04 04:00:45;;;;;;;16.17;8.63;;;;;;;;;;4974484;28;20054;-67
2023/01/04 04:03:11;;;;;;;15.63;8.75;;;;;;;;;;4976049;28;20046;-68
2023/01/04 04:08:26;;;;;;;14.32;8.15;;;;;;;;;;4976770;28;20037;-68
2023/01/04 04:10:54;;;;;;;13.38;8.15;;;;;;;;;;4976234;28;20054;-67
2023/01/04 04:13:19;;;;;;;13.68;7.82;;;;;;;;;;4976248;28;20041;-68
2023/01/04 04:15:45;;;;;;;10.80;6.85;;;;;;;;;;4976195;28;20031;-68
2023/01/04 04:18:10;;;;;;;15.63;8.15;;;;;;;;;;4976112;28;20034;-69
2023/01/04 04:20:36;;;;;;;13.93;6.53;;;;;;;;;;4976149;28;20027;-70
2023/01/04 04:23:01;;;;;;;12.18;7.95;;;;;;;;;;4976113;28;20039;-70
2023/01/04 04:25:27;;;;;;;16.48;8.45;;;;;;;;;;4975640;28;20038;-68
2023/01/04 04:27:52;;;;;;;14.48;7.90;;;;;;;;;;4976062;28;20101;-68
2023/01/04 04:30:18;;;;;;;15.13;7.85;;;;;;;;;;4992359;28;20058;-69
2023/01/04 04:32:43;;;;;;;12.05;7.55;;;;;;;;;;4995264;28;20033;-67
2023/01/04 04:35:09;;;;;;;12.40;6.75;;;;;;;;;;4995244;28;20065;-69
2023/01/04 04:37:36;;;;;;;9.85;6.15;;;;;;;;;;4995337;28;20030;-68
2023/01/04 04:40:02;;;;;;;10.27;5.68;;;;;;;;;;4994710;28;20034;-69
2023/01/04 04:42:28;;;;;;;8.25;5.13;;;;;;;;;;4998222;28;20034;-69
2023/01/04 04:44:53;;;;;;;11.10;6.05;;;;;;;;;;5014793;28;20053;-69
2023/01/04 04:47:19;;;;;;;12.60;7.22;;;;;;;;;;5014500;28;20049;-68
2023/01/04 04:49:44;;;;;;;10.35;6.72;;;;;;;;;;5014572;28;20026;-70
2023/01/04 04:52:10;;;;;;;11.20;6.22;;;;;;;;;;5014683;28;20030;-70
2023/01/04 04:54:35;;;;;;;11.60;7.18;;;;;;;;;;5014384;28;20387;-69
2023/01/04 04:57:00;;;;;;;14.43;7.38;;;;;;;;;;5014312;28;20456;-70
2023/01/04 04:59:26;;;;;;;16.15;7.07;;;;;;;;;;5014332;28;20029;-68
2023/01/04 05:01:51;;;;;;;15.60;7.85;;;;;;;;;;5014438;28;20168;-67
2023/01/04 05:04:18;;;;;;;11.82;7.63;;;;;;;;;;5014363;28;20485;-70
2023/01/04 05:06:45;;;;;;;17.45;8.68;;;;;;;;;;5014191;28;20034;-70
2023/01/04 05:09:12;;;;;;;12.98;7.57;;;;;;;;;;5013956;28;20018;-70
2023/01/04 05:14:22;;;;;;;12.80;7.32;;;;;;;;;;5014451;28;20033;-70
2023/01/04 05:16:47;;;;;;;10.93;6.95;;;;;;;;;;5014214;28;20041;-69
2023/01/04 05:19:12;;;;;;;13.18;7.18;;;;;;;;;;5013721;28;20033;-70
2023/01/04 05:21:39;;;;;;;10.32;6.72;;;;;;;;;;5013967;28;20474;-70
2023/01/04 05:24:06;;;;;;;11.40;6.63;;;;;;;;;;5013730;28;20030;-71
2023/01/04 05:26:31;;;;;;;12.73;7.18;;;;;;;;;;5013782;28;20030;-70
2023/01/04 05:28:57;;;;;;;9.13;5.95;;;;;;;;;;5013721;28;20029;-69
2023/01/04 05:31:22;;;;;;;10.40;5.68;;;;;;;;;;5013939;28;20045;-69
2023/01/04 05:33:48;;;;;;;12.48;7.07;;;;;;;;;;5013749;28;20076;-68
2023/01/04 05:36:13;;;;;;;8.27;5.78;;;;;;;;;;5013863;28;20026;-70
2023/01/04 05:38:39;;;;;;;11.85;5.72;;;;;;;;;;5013523;28;20018;-68
2023/01/04 05:42:23;;;;;;;9.05;4.75;;;;;;;;;;5013458;28;20391;-68
2023/01/04 05:43:49;;;;;;;10.55;6.10;;;;;;;;;;5013131;28;20053;-69
2023/01/04 05:46:15;;;;;;;5.72;4.00;;;;;;;;;;5013400;28;20403;-67
2023/01/04 05:48:40;;;;;;;7.63;4.93;;;;;;;;;;5013422;28;20018;-67
2023/01/04 05:51:06;;;;;;;7.47;4.68;;;;;;;;;;5013549;28;20062;-68
2023/01/04 05:53:31;;;;;;;9.25;5.15;;;;;;;;;;5012883;28;20125;-69
2023/01/04 05:55:56;;;;;;;9.63;5.30;;;;;;;;;;5013288;28;20398;-69
2023/01/04 05:58:22;;;;;;;11.27;5.65;;;;;;;;;;5013453;28;20032;-67
2023/01/04 06:00:47;;;;;;;10.52;5.28;;;;;;;;;;5013191;28;20022;-69
2023/01/04 06:03:13;;;;;;;8.35;5.20;;;;;;;;;;5013345;28;20415;-67
2023/01/04 06:05:38;;;;;;;7.22;5.35;;;;;;;;;;5013085;28;20057;-68
2023/01/04 06:08:04;;;;;;;8.70;4.80;;;;;;;;;;5012977;28;20036;-70
2023/01/04 06:10:30;;;;;;;6.60;4.38;;;;;;;;;;5013137;28;20101;-68
2023/01/04 06:12:55;;;;;;;11.45;5.28;;;;;;;;;;5013184;28;20026;-67
2023/01/04 06:15:20;;;;;;;9.80;5.22;;;;;;;;;;5012958;28;20462;-68
2023/01/04 06:17:46;;;;;;;7.55;4.72;;;;;;;;;;5013081;28;20022;-66
2023/01/04 06:20:11;;;;;;;8.70;4.70;;;;;;;;;;5012897;28;20437;-69
2023/01/04 06:22:39;;;;;;;8.10;4.85;;;;;;;;;;5012792;28;20021;-69
2023/01/04 06:25:05;;;;;;;5.88;3.92;;;;;;;;;;5012923;28;20033;-69
2023/01/04 06:27:30;;;;;;;9.18;4.50;;;;;;;;;;5012840;28;20041;-69
2023/01/04 06:29:56;;;;;;;7.22;4.93;;;;;;;;;;5012672;28;20022;-68
2023/01/04 06:32:21;;;;;;;8.50;4.75;;;;;;;;;;5012845;28;20507;-66
2023/01/04 06:34:47;;;;;;;9.85;5.25;;;;;;;;;;5012900;28;20026;-66
2023/01/04 06:37:12;;;;;;;9.55;5.18;;;;;;;;;;5012619;28;20030;-67
2023/01/04 06:39:38;;;;;;;10.18;3.53;;;;;;;;;;5012810;28;20041;-67
2023/01/04 06:42:04;;;;;;;9.43;4.88;;;;;;;;;;5012821;28;20066;-67
2023/01/04 06:44:29;;;;;;;7.45;4.32;;;;;;;;;;5012513;28;20053;-69
2023/01/04 06:46:55;;;;;;;9.38;5.07;;;;;;;;;;5012527;28;20058;-67
2023/01/04 06:49:20;;;;;;;6.90;4.15;;;;;;;;;;5012583;28;20456;-69
2023/01/04 06:51:46;;;;;;;6.93;3.97;;;;;;;;;;5012225;28;20549;-69
2023/01/04 06:54:12;;;;;;;5.43;3.60;;;;;;;;;;5012666;28;20546;-68
2023/01/04 06:56:38;;;;;;;7.25;5.00;;;;;;;;;;5012604;28;20514;-69
2023/01/04 06:59:04;;;;;;;5.18;3.40;;;;;;;;;;5012504;28;20029;-68
2023/01/04 07:01:29;;;;;;;7.70;4.35;;;;;;;;;;5012709;28;20029;-68
2023/01/04 07:03:55;;;;;;;8.05;3.95;;;;;;;;;;5012668;28;20021;-68
2023/01/04 07:06:20;;;;;;;6.72;4.40;;;;;;;;;;5016101;28;20037;-68
2023/01/04 07:08:45;;;;;;;6.82;4.35;;;;;;;;;;5016367;28;20375;-68
2023/01/04 07:11:11;;;;;;;6.75;3.58;;;;;;;;;;5016365;28;20387;-67
2023/01/04 07:13:36;;;;;;;4.93;3.15;;;;;;;;;;5016422;28;20379;-67
2023/01/04 07:16:02;;;;;;;6.38;5.03;;;;;;;;;;5016280;28;20032;-67
2023/01/04 07:18:27;;;;;;;6.25;4.38;;;;;;;;;;5016329;28;20030;-67
2023/01/04 07:20:52;;;;;;;7.93;4.38;;;;;;;;;;5016067;28;20035;-70
2023/01/04 07:23:18;;;;;;;6.43;3.83;;;;;;;;;;5016251;28;20426;-68
2023/01/04 07:25:43;;;;;;;6.88;4.38;;;;;;;;;;5016098;28;20464;-69
2023/01/04 07:28:09;;;;;;;5.30;3.47;;;;;;;;;;5016095;28;20467;-70
2023/01/04 07:30:34;;;;;;;6.72;3.80;;;;;;;;;;5015676;28;20582;-70
2023/01/04 07:33:00;;;;;;;6.68;4.15;;;;;;;;;;5015991;28;20033;-69
2023/01/04 07:35:25;;;;;;;5.45;3.67;;;;;;;;;;5015558;28;20022;-69
2023/01/04 07:37:51;;;;;;;7.68;4.13;;;;;;;;;;5015977;28;20088;-70
2023/01/04 07:40:16;;;;;;;5.95;4.10;;;;;;;;;;5015947;28;20022;-68
2023/01/04 07:42:42;;;;;;;6.57;3.75;;;;;;;;;;5015589;28;20040;-70
2023/01/04 07:45:08;;;;;;;6.93;4.32;;;;;;;;;;5015495;28;20111;-69
2023/01/04 07:47:33;;;;;;;6.68;3.95;;;;;;;;;;5015419;28;20026;-69
2023/01/04 07:49:59;;;;;;;5.35;3.03;;;;;;;;;;5015523;28;20030;-70
2023/01/04 07:52:25;;;;;;;7.60;4.32;;;;;;;;;;5015636;28;20037;-70
2023/01/04 07:54:51;;;;;;;5.43;3.67;;;;;;;;;;5015599;28;20034;-68
2023/01/04 07:57:16;;;;;;;10.18;4.18;;;;;;;;;;5015380;28;20476;-68
2023/01/04 07:59:42;;;;;;;9.18;4.30;;;;;;;;;;5015494;28;20080;-67
2023/01/04 08:02:10;;;;;;;4.90;3.53;;;;;;;;;;5015394;28;20049;-70
2023/01/04 08:04:35;;;;;;;8.88;4.00;;;;;;;;;;5015174;28;20026;-69
2023/01/04 08:07:01;;;;;;;8.27;3.65;;;;;;;;;;5015138;28;20040;-69
2023/01/04 08:09:26;;;;;;;6.22;3.05;;;;;;;;;;5015463;28;20030;-69
2023/01/04 08:11:52;;;;;;;6.88;3.50;;;;;;;;;;5007952;28;20423;-69
2023/01/04 08:14:17;;;;;;;4.97;2.97;;;;;;;;;;4995676;28;20362;-69
2023/01/04 08:16:42;;;;;;;4.68;2.85;;;;;;;;;;4995707;28;20093;-69
2023/01/04 08:19:16;;;;;;;7.07;3.88;;;;;;;;;;4995322;28;20026;-70
2023/01/04 08:21:42;;;;;;;7.55;3.42;;;;;;;;;;4995517;28;20030;-69
2023/01/04 08:24:10;;;;;;;7.82;3.70;;;;;;;;;;4995594;28;20028;-68
2023/01/04 08:26:35;;;;;;;5.88;4.10;;;;;;;;;;4995119;28;20046;-69
2023/01/04 08:29:01;;;;;;;9.75;3.97;;;;;;;;;;5001461;28;20040;-68
2023/01/04 08:31:29;;;;;;;7.38;3.88;;;;;;;;;;5014643;28;20458;-67
2023/01/04 08:33:55;;;;;;;10.13;3.67;;;;;;;;;;5014774;28;20061;-69
2023/01/04 08:36:26;;;;;;;5.40;2.92;;;;;;;;;;5014834;28;20026;-67
2023/01/04 08:38:54;;;;;;;6.03;3.75;;;;;;;;;;5014934;28;20037;-69
2023/01/04 08:41:19;;;;;;;6.95;3.42;;;;;;;;;;5014826;28;20026;-68
2023/01/04 08:43:45;;;;;;;8.63;4.40;;;;;;;;;;5014427;28;20119;-70
2023/01/04 08:46:12;;;;;;;8.85;3.97;;;;;;;;;;5007599;28;20045;-69
2023/01/04 08:48:39;;;;;;;7.32;3.80;;;;;;;;;;4994831;28;20031;-68
2023/01/04 08:51:10;;;;;;;5.90;3.55;;;;;;;;;;4994878;28;20030;-68
2023/01/04 08:53:35;;;;;;;9.48;4.43;;;;;;;;;;4995109;28;20369;-68
2023/01/04 08:56:01;;;;;;;6.05;3.58;;;;;;;;;;4994841;28;20101;-69
2023/01/04 08:58:28;;;;;;;6.60;3.55;;;;;;;;;;4994884;28;20023;-69
2023/01/04 09:00:59;;;;;;;5.22;3.55;;;;;;;;;;4994839;28;20435;-69
2023/01/04 09:03:24;;;;;;;;;;;;;;;;;;4995176;28;20034;-70
2023/01/04 09:05:50;;;;;;;6.93;3.25;;;;;;;;;;4994212;28;19960;-70
2023/01/04 09:08:15;;;;;;;6.60;4.40;;;;;;;;;;4994482;28;20026;-72
2023/01/04 09:10:40;;;;;;;5.22;2.55;;;;;;;;;;4994755;28;20125;-70
2023/01/04 09:13:06;;;;;;;7.07;4.28;;;;;;;;;;4994579;28;20032;-70
2023/01/04 09:15:32;;;;;;;8.15;4.43;;;;;;;;;;4994224;28;20058;-68
2023/01/04 09:17:58;;;;;;;9.45;3.70;;;;;;;;;;4994370;28;20050;-70
2023/01/04 09:20:23;;;;;;;8.55;4.30;;;;;;;;;;4994304;28;20643;-71
2023/01/04 09:22:49;;;;;;;9.55;4.90;;;;;;;;;;4994444;28;20093;-70
2023/01/04 09:25:14;;;;;;;9.97;5.77;;;;;;;;;;4994292;28;20419;-72
2023/01/04 09:27:40;;;;;;;9.05;4.25;;;;;;;;;;4993541;28;20476;-71
2023/01/04 09:30:06;;;;;;;8.63;4.25;;;;;;;;;;4993963;28;20114;-74
2023/01/04 09:32:31;;;;;;;6.13;3.72;;;;;;;;;;4994208;28;20480;-72
2023/01/04 09:34:57;;;;;;;8.15;4.20;;;;;;;;;;4994204;28;20109;-74
2023/01/04 09:37:22;;;;;;;9.35;4.57;;;;;;;;;;4994018;28;20035;-72
2023/01/04 09:39:48;;;;;;;7.07;4.57;;;;;;;;;;4993933;28;20460;-73
2023/01/04 09:42:48;;;;;;;7.57;4.40;;;;;;;;;;4994025;28;20031;-74
2023/01/04 09:45:21;;;;;;;;;;;;;;;;;;4972395;28;20043;-72
2023/01/04 09:48:17;;;;;;;10.57;4.80;;;;;;;;;;4972059;28;19917;-69
2023/01/04 09:50:54;;;;;;;7.07;3.50;;;;;;;;;;4972425;28;20046;-72
2023/01/04 09:53:57;;;;;;;8.32;5.20;;;;;;;;;;4972313;28;20086;-74
2023/01/04 09:56:30;;;;;;;8.50;5.05;;;;;;;;;;4971628;28;20035;-73
2023/01/04 09:58:56;;;;;;;7.65;4.25;;;;;;;;;;4985044;28;20090;-73
2023/01/04 10:01:43;;;;;;;11.00;5.47;;;;;;;;;;4981550;28;20105;-73
2023/01/04 10:04:14;;;;;;;11.52;5.38;;;;;;;;;;4974984;28;20030;-73
2023/01/04 10:06:40;;;;;;;5.72;4.20;;;;;;;;;;4960244;28;20038;-72
2023/01/04 10:09:11;;;;;;;6.72;3.85;;;;;;;;;;4974140;28;20076;-70
2023/01/04 10:11:50;;;;;;;11.85;5.47;;;;;;;;;;4983344;28;20042;-71
2023/01/04 10:14:40;;;;;;;10.63;5.30;;;;;;;;;;4974764;28;20042;-69
2023/01/04 10:17:26;;;;;;;7.15;3.90;;;;;;;;;;4983509;28;20062;-69
2023/01/04 10:20:23;;;;;;;6.70;4.57;;;;;;;;;;4990549;28;20110;-69
2023/01/04 10:23:23;;;;;;;6.85;3.97;;;;;;;;;;4983969;28;20026;-69
2023/01/04 10:25:56;;;;;;;6.68;3.22;;;;;;;;;;4999112;28;20034;-69
2023/01/04 10:28:33;;;;;;;8.18;4.95;;;;;;;;;;5009885;28;20030;-69
2023/01/04 10:31:12;;;;;;;6.85;4.05;;;;;;;;;;4997408;28;20041;-67
2023/01/04 10:33:47;;;;;;;6.75;3.40;;;;;;;;;;5004948;28;20022;-67
2023/01/04 10:36:20;;;;;;;6.63;4.40;;;;;;;;;;4996147;28;20065;-67
2023/01/04 10:38:49;;;;;;;8.43;4.90;;;;;;;;;;5009587;28;20022;-67
2023/01/04 10:41:25;;;;;;;7.00;5.00;;;;;;;;;;5005657;28;20466;-67
2023/01/04 10:44:00;;;;;;;7.13;4.07;;;;;;;;;;4998469;28;20049;-67
2023/01/04 10:46:38;;;;;;;7.57;4.90;;;;;;;;;;5012925;28;20073;-68
2023/01/04 10:49:12;;;;;;;11.07;5.50;;;;;;;;;;5004150;28;20025;-67
2023/01/04 10:51:44;;;;;;;8.32;5.35;;;;;;;;;;5004295;28;20110;-67
2023/01/04 10:54:36;;;;;;;9.18;4.93;;;;;;;;;;5012927;28;20026;-67
2023/01/04 10:57:14;;;;;;;7.07;4.57;;;;;;;;;;4991073;28;20022;-67
2023/01/04 10:59:54;;;;;;;9.57;6.30;;;;;;;;;;5004248;28;20515;-67
2023/01/04 11:02:38;;;;;;;;;;;;;;;;;;5013461;28;20026;-67
2023/01/04 11:05:28;;;;;;;6.53;3.80;;;;;;;;;;5003507;28;20016;-67
2023/01/04 11:08:09;;;;;;;14.82;4.75;;;;;;;;;;5002074;28;20396;-67
2023/01/04 11:10:47;;;;;;;9.27;5.78;;;;;;;;;;4983869;28;20143;-67
2023/01/04 11:13:12;;;;;;;6.90;4.78;;;;;;;;;;5007379;28;20030;-67
2023/01/04 11:15:38;;;;;;;6.68;4.50;;;;;;;;;;5001884;28;20145;-67
2023/01/04 11:18:06;;;;;;;9.38;5.63;;;;;;;;;;4998910;28;20034;-67
2023/01/04 11:20:32;;;;;;;9.85;5.72;;;;;;;;;;5009331;28;20026;-67
2023/01/04 11:23:10;;;;;;;6.53;4.72;;;;;;;;;;5006165;28;20033;-67
2023/01/04 11:26:01;;;;;;;8.48;4.90;;;;;;;;;;5000615;28;20165;-67
2023/01/04 11:28:38;;;;;;;6.53;4.10;;;;;;;;;;4990530;28;20396;-67
2023/01/04 11:31:07;;;;;;;5.18;3.95;;;;;;;;;;5015709;28;20030;-67
2023/01/04 11:33:51;;;;;;;7.40;4.10;;;;;;;;;;5001013;28;20161;-67
2023/01/04 11:36:42;;;;;;;7.50;5.00;;;;;;;;;;4985602;28;20014;-67
2023/01/04 11:39:21;;;;;;;4.85;3.92;;;;;;;;;;5015712;28;20540;-67
2023/01/04 11:42:18;;;;;;;5.70;3.67;;;;;;;;;;5015581;28;20026;-67
2023/01/04 11:44:58;;;;;;;6.40;3.50;;;;;;;;;;5014930;28;20041;-67
2023/01/04 11:47:24;;;;;;;5.07;3.50;;;;;;;;;;5015537;28;20057;-67
2023/01/04 11:49:50;;;;;;;3.17;2.67;;;;;;;;;;5015040;28;20334;-66
2023/01/04 11:52:36;;;;;;;7.25;3.72;;;;;;;;;;5015775;28;20076;-66
2023/01/04 11:55:23;;;;;;;4.00;3.08;;;;;;;;;;5015385;28;20032;-66
2023/01/04 11:58:09;;;;;;;5.82;3.50;;;;;;;;;;5015621;28;20018;-66
2023/01/04 12:00:35;;;;;;;14.10;3.60;;;;;;;;;;5010625;28;20119;-65
2023/01/04 12:03:14;;;;;;;4.97;3.47;;;;;;;;;;4979337;28;20111;-67
2023/01/04 12:05:39;;;;;;;9.15;2.70;;;;;;;;;;4993862;28;20030;-66
2023/01/04 12:08:05;;;;;;;3.67;2.40;;;;;;;;;;4995919;28;20474;-67
2023/01/04 12:10:30;;;;;;;5.00;2.80;;;;;;;;;;4995403;28;20069;-66
2023/01/04 12:13:00;;;;;;;5.22;2.78;;;;;;;;;;4995750;28;20030;-67
2023/01/04 12:15:35;;;;;;;4.05;2.67;;;;;;;;;;4995509;28;20432;-66
2023/01/04 12:18:11;;;;;;;4.60;2.90;;;;;;;;;;4995750;28;20117;-66
2023/01/04 12:20:36;;;;;;;3.83;2.67;;;;;;;;;;4995544;28;20057;-67
2023/01/04 12:23:02;;;;;;;4.20;2.90;;;;;;;;;;4995652;28;20061;-67
2023/01/04 12:25:34;;;;;;;5.43;3.10;;;;;;;;;;4995162;28;20034;-66
2023/01/04 12:27:59;;;;;;;4.38;2.67;;;;;;;;;;4995471;28;20024;-65
2023/01/04 12:30:44;;;;;;;4.22;2.92;;;;;;;;;;5012805;28;20038;-68
2023/01/04 12:33:28;;;;;;;4.88;2.95;;;;;;;;;;5014507;28;20068;-66
2023/01/04 12:36:02;;;;;;;5.70;2.63;;;;;;;;;;5014635;28;20515;-67
2023/01/04 12:38:54;;;;;;;4.97;2.22;;;;;;;;;;5014523;28;20030;-67
2023/01/04 12:41:59;;;;;;;4.93;3.00;;;;;;;;;;5014409;28;20053;-67
2023/01/04 12:44:41;;;;;;;5.57;2.70;;;;;;;;;;5013729;28;20111;-68
2023/01/04 12:50:12;;;;;;;5.00;2.22;;;;;;;;;;5014584;28;20115;-67
2023/01/04 12:52:44;;;;;;;5.55;3.50;;;;;;;;;;5014217;28;20086;-68
2023/01/04 12:55:27;;;;;;;4.22;2.60;;;;;;;;;;5014414;28;20032;-68
2023/01/04 12:57:52;;;;;;;4.30;2.78;;;;;;;;;;5014402;28;20040;-68
2023/01/04 13:00:18;;;;;;;5.00;3.15;;;;;;;;;;5013987;28;20026;-67
2023/01/04 13:02:49;;;;;;;7.22;3.35;;;;;;;;;;5013373;28;20022;-67
2023/01/04 13:05:17;;;;;;;5.00;3.17;;;;;;;;;;5014139;28;20104;-67
2023/01/04 13:07:52;;;;;;;3.92;2.65;;;;;;;;;;5013791;28;20112;-66
2023/01/04 13:10:20;;;;;;;3.35;2.50;;;;;;;;;;5012711;28;20034;-67
2023/01/04 13:12:55;;;;;;;4.35;3.28;;;;;;;;;;5014156;28;20057;-68
2023/01/04 13:15:52;;;;;;;2.25;1.92;;;;;;;;;;5012618;28;20390;-68
2023/01/04 13:18:51;;;;;;;4.97;2.90;;;;;;;;;;4991986;28;20073;-68
2023/01/04 13:21:30;;;;;;;5.30;2.78;;;;;;;;;;4981353;28;20042;-67
2023/01/04 13:24:12;;;;;;;3.22;2.05;;;;;;;;;;4992112;28;20033;-67
2023/01/04 13:26:44;;;;;;;8.13;3.13;;;;;;;;;;4992103;28;20042;-67
2023/01/04 13:29:18;;;;;;;4.60;3.00;;;;;;;;;;4991851;28;20042;-66
2023/01/04 13:32:03;;;;;;;5.57;3.10;;;;;;;;;;4991849;28;20027;-65
2023/01/04 13:34:48;;;;;;;6.60;3.78;;;;;;;;;;4992012;28;20042;-67
2023/01/04 13:37:22;;;;;;;7.15;3.22;;;;;;;;;;4991677;28;20031;-67
2023/01/04 13:39:49;;;;;;;5.53;3.35;;;;;;;;;;4991724;28;20065;-67
2023/01/04 13:42:22;;;;;;;5.78;3.30;;;;;;;;;;4991827;28;20541;-67
2023/01/04 13:45:05;;;;;;;3.70;3.17;;;;;;;;;;4991596;28;20512;-66
2023/01/04 13:47:35;;;;;;;5.45;3.28;;;;;;;;;;4975300;28;20081;-68
2023/01/04 13:50:01;;;;;;;4.68;3.33;;;;;;;;;;4991721;28;20476;-68
2023/01/04 13:52:28;;;;;;;4.40;3.35;;;;;;;;;;4991405;28;20034;-68
2023/01/04 13:55:30;;;;;;;7.10;3.58;;;;;;;;;;5004537;28;20036;-68
2023/01/04 13:58:04;;;;;;;7.72;3.33;;;;;;;;;;4991592;28;20109;-68
2023/01/04 14:00:39;;;;;;;4.57;3.15;;;;;;;;;;4991622;28;20042;-67
2023/01/04 14:03:12;;;;;;;4.85;3.20;;;;;;;;;;4991572;28;20061;-67
2023/01/04 14:05:45;;;;;;;7.68;3.50;;;;;;;;;;4991043;28;20558;-67
2023/01/04 14:08:11;;;;;;;5.80;3.05;;;;;;;;;;4991448;28;20034;-67
2023/01/04 14:10:41;;;;;;;4.80;2.70;;;;;;;;;;4991322;28;20026;-67
2023/01/04 14:13:08;;;;;;;;;;;;;;;;;;4991612;28;20456;-67
2023/01/04 14:15:34;;;;;;;3.25;1.83;;;;;;;;;;4991428;28;20355;-67
2023/01/04 14:17:59;;;;;;;4.50;2.35;;;;;;;;;;4991281;28;20097;-67
2023/01/04 14:20:25;;;;;;;5.47;2.90;;;;;;;;;;4991196;28;20030;-66
2023/01/04 14:22:55;;;;;;;4.63;2.90;;;;;;;;;;4991143;28;20034;-66
2023/01/04 14:25:29;;;;;;;4.38;2.38;;;;;;;;;;4990893;28;20053;-66
2023/01/04 14:28:20;;;;;;;4.10;2.63;;;;;;;;;;4991266;28;20047;-67
2023/01/04 14:30:58;;;;;;;4.15;2.30;;;;;;;;;;4985500;28;20047;-67
2023/01/04 14:33:40;;;;;;;3.15;2.03;;;;;;;;;;5012708;28;20022;-66
2023/01/04 14:36:06;;;;;;;4.40;2.40;;;;;;;;;;5012644;28;20026;-67
2023/01/04 14:39:06;;;;;;;4.03;2.40;;;;;;;;;;5012844;28;20037;-66
2023/01/04 14:41:32;;;;;;;;;;;;;;;;;;5009046;28;20073;-67
2023/01/04 14:44:10;;;;;;;3.97;1.80;;;;;;;;;;5012530;28;20018;-67
2023/01/04 14:46:36;;;;;;;3.05;2.22;;;;;;;;;;5012150;28;20113;-67
2023/01/04 14:49:01;;;;;;;2.55;2.00;;;;;;;;;;5012442;28;20105;-67
2023/01/04 14:51:47;;;;;;;4.78;2.40;;;;;;;;;;5012767;28;20494;-67
2023/01/04 14:54:14;;;;;;;2.70;2.10;;;;;;;;;;5012790;28;20030;-67
2023/01/04 14:56:40;;;;;;;3.47;2.30;;;;;;;;;;5012517;28;20030;-67
2023/01/04 14:59:06;;;;;;;3.42;2.20;;;;;;;;;;5012514;28;20026;-66
2023/01/04 15:01:32;;;;;;;2.53;2.08;;;;;;;;;;5012309;28;20030;-67
2023/01/04 15:03:58;;;;;;;3.88;2.40;;;;;;;;;;5012310;28;20037;-66
2023/01/04 15:06:23;;;;;;;4.75;2.33;;;;;;;;;;5012401;28;20030;-67
2023/01/04 15:08:50;;;;;;;3.83;2.60;;;;;;;;;;5012343;28;20030;-67
2023/01/04 15:11:16;;;;;;;6.95;2.00;;;;;;;;;;5012293;28;20041;-67
2023/01/04 15:13:43;;;;;;;4.13;2.40;;;;;;;;;;5012478;28;20077;-67
2023/01/04 15:16:12;;;;;;;3.33;2.35;;;;;;;;;;5012411;28;20451;-68
2023/01/04 15:18:38;;;;;;;2.88;2.10;;;;;;;;;;5012319;28;20458;-67
2023/01/04 15:21:04;;;;;;;3.00;2.58;;;;;;;;;;5012255;28;20399;-67
2023/01/04 15:23:29;;;;;;;3.85;2.45;;;;;;;;;;5012307;28;20030;-68
2023/01/04 15:25:55;;;;;;;6.13;2.15;;;;;;;;;;5013789;28;20032;-67
2023/01/04 15:28:23;;;;;;;5.60;2.38;;;;;;;;;;5015734;28;20429;-68
2023/01/04 15:30:48;;;;;;;2.85;2.08;;;;;;;;;;5014728;28;20022;-67
2023/01/04 15:33:14;;;;;;;2.80;2.17;;;;;;;;;;5015652;28;20036;-67
2023/01/04 15:35:39;;;;;;;3.95;2.20;;;;;;;;;;5015808;28;20498;-68
2023/01/04 15:38:04;;;;;;;3.40;2.28;;;;;;;;;;5016078;28;20030;-67
2023/01/04 15:40:30;;;;;;;3.28;2.40;;;;;;;;;;5015860;28;20030;-67
2023/01/04 15:42:58;;;;;;;3.55;2.00;;;;;;;;;;5015359;28;20376;-67
2023/01/04 15:45:34;;;;;;;4.13;2.30;;;;;;;;;;5015615;28;20426;-67
2023/01/04 15:48:02;;;;;;;4.80;2.20;;;;;;;;;;5015553;28;20046;-68